sensor_id;sensor_type;location;lat;lon;timestamp;P1;durP1;ratioP1;P2;durP2;ratioP2
28176;SDS011;15461;41.652;9.378;2024-01-30T00:01:50;8.77;;;3.70;;
28176;SDS011;15461;41.652;9.378;2024-01-30T00:04:15;5.70;;;3.92;;
28176;SDS011;15461;41.652;9.378;2024-01-30T00:06:42;7.22;;;3.90;;
28176;SDS011;15461;41.652;9.378;2024-01-30T00:09:11;6.72;;;3.70;;
28176;SDS011;15461;41.652;9.378;2024-01-30T00:11:39;6.43;;;3.58;;
28176;SDS011;15461;41.652;9.378;2024-01-30T00:14:05;4.90;;;3.00;;
28176;SDS011;15461;41.652;9.378;2024-01-30T00:16:31;6.38;;;3.65;;
28176;SDS011;15461;41.652;9.378;2024-01-30T00:18:57;6.35;;;3.50;;
28176;SDS011;15461;41.652;9.378;2024-01-30T00:21:23;5.40;;;3.28;;
28176;SDS011;15461;41.652;9.378;2024-01-30T00:23:49;5.07;;;3.38;;
28176;SDS011;15461;41.652;9.378;2024-01-30T00:26:15;4.57;;;2.95;;
28176;SDS011;15461;41.652;9.378;2024-01-30T00:28:41;8.20;;;3.90;;
28176;SDS011;15461;41.652;9.378;2024-01-30T00:31:07;5.97;;;3.50;;
28176;SDS011;15461;41.652;9.378;2024-01-30T00:33:34;6.95;;;3.78;;
28176;SDS011;15461;41.652;9.378;2024-01-30T00:35:59;5.40;;;3.40;;
28176;SDS011;15461;41.652;9.378;2024-01-30T00:38:25;5.65;;;3.50;;
28176;SDS011;15461;41.652;9.378;2024-01-30T00:40:51;6.15;;;3.58;;
28176;SDS011;15461;41.652;9.378;2024-01-30T00:43:17;8.40;;;3.70;;
28176;SDS011;15461;41.652;9.378;2024-01-30T00:45:45;4.35;;;3.22;;
28176;SDS011;15461;41.652;9.378;2024-01-30T00:48:11;6.03;;;3.45;;
28176;SDS011;15461;41.652;9.378;2024-01-30T00:50:37;4.28;;;3.10;;
28176;SDS011;15461;41.652;9.378;2024-01-30T00:53:03;7.25;;;3.55;;
28176;SDS011;15461;41.652;9.378;2024-01-30T00:55:28;5.10;;;3.60;;
28176;SDS011;15461;41.652;9.378;2024-01-30T00:57:54;8.65;;;3.25;;
28176;SDS011;15461;41.652;9.378;2024-01-30T01:00:20;3.92;;;3.13;;
28176;SDS011;15461;41.652;9.378;2024-01-30T01:02:46;5.93;;;3.65;;
28176;SDS011;15461;41.652;9.378;2024-01-30T01:05:12;7.35;;;3.85;;
28176;SDS011;15461;41.652;9.378;2024-01-30T01:07:38;5.80;;;3.60;;
28176;SDS011;15461;41.652;9.378;2024-01-30T01:10:05;7.82;;;3.75;;
28176;SDS011;15461;41.652;9.378;2024-01-30T01:12:31;6.10;;;3.83;;
28176;SDS011;15461;41.652;9.378;2024-01-30T01:14:57;5.63;;;3.80;;
28176;SDS011;15461;41.652;9.378;2024-01-30T01:17:23;5.93;;;3.72;;
28176;SDS011;15461;41.652;9.378;2024-01-30T01:19:48;7.07;;;3.85;;
28176;SDS011;15461;41.652;9.378;2024-01-30T01:22:15;6.38;;;3.72;;
28176;SDS011;15461;41.652;9.378;2024-01-30T01:24:42;9.38;;;3.97;;
28176;SDS011;15461;41.652;9.378;2024-01-30T01:27:08;10.45;;;3.85;;
28176;SDS011;15461;41.652;9.378;2024-01-30T01:29:33;7.30;;;3.90;;
28176;SDS011;15461;41.652;9.378;2024-01-30T01:31:59;4.90;;;3.47;;
28176;SDS011;15461;41.652;9.378;2024-01-30T01:34:25;7.40;;;3.80;;
28176;SDS011;15461;41.652;9.378;2024-01-30T01:36:51;6.90;;;3.95;;
28176;SDS011;15461;41.652;9.378;2024-01-30T01:39:17;4.93;;;3.45;;
28176;SDS011;15461;41.652;9.378;2024-01-30T01:41:43;5.78;;;3.58;;
28176;SDS011;15461;41.652;9.378;2024-01-30T01:44:09;8.70;;;3.95;;
28176;SDS011;15461;41.652;9.378;2024-01-30T01:46:35;9.98;;;3.58;;
28176;SDS011;15461;41.652;9.378;2024-01-30T01:49:02;7.60;;;3.88;;
28176;SDS011;15461;41.652;9.378;2024-01-30T01:51:29;5.90;;;3.53;;
28176;SDS011;15461;41.652;9.378;2024-01-30T01:53:58;7.82;;;4.20;;
28176;SDS011;15461;41.652;9.378;2024-01-30T01:56:30;7.17;;;4.03;;
28176;SDS011;15461;41.652;9.378;2024-01-30T01:58:59;6.20;;;3.50;;
28176;SDS011;15461;41.652;9.378;2024-01-30T02:01:32;6.20;;;3.58;;
28176;SDS011;15461;41.652;9.378;2024-01-30T02:03:59;6.32;;;3.72;;
28176;SDS011;15461;41.652;9.378;2024-01-30T02:06:25;5.55;;;3.60;;
28176;SDS011;15461;41.652;9.378;2024-01-30T02:08:51;9.57;;;4.00;;
28176;SDS011;15461;41.652;9.378;2024-01-30T02:11:17;7.25;;;2.95;;
28176;SDS011;15461;41.652;9.378;2024-01-30T02:13:45;6.68;;;3.90;;
28176;SDS011;15461;41.652;9.378;2024-01-30T02:16:10;7.32;;;3.75;;
28176;SDS011;15461;41.652;9.378;2024-01-30T02:18:36;6.63;;;3.88;;
28176;SDS011;15461;41.652;9.378;2024-01-30T02:21:07;9.43;;;3.75;;
28176;SDS011;15461;41.652;9.378;2024-01-30T02:23:33;6.45;;;3.72;;
28176;SDS011;15461;41.652;9.378;2024-01-30T02:25:59;6.03;;;3.70;;
28176;SDS011;15461;41.652;9.378;2024-01-30T02:28:26;6.90;;;3.40;;
28176;SDS011;15461;41.652;9.378;2024-01-30T02:30:52;5.80;;;3.45;;
28176;SDS011;15461;41.652;9.378;2024-01-30T02:33:18;6.50;;;3.83;;
28176;SDS011;15461;41.652;9.378;2024-01-30T02:35:44;5.53;;;3.78;;
28176;SDS011;15461;41.652;9.378;2024-01-30T02:38:10;5.28;;;3.47;;
28176;SDS011;15461;41.652;9.378;2024-01-30T02:40:36;5.55;;;3.33;;
28176;SDS011;15461;41.652;9.378;2024-01-30T02:43:02;7.30;;;3.60;;
28176;SDS011;15461;41.652;9.378;2024-01-30T02:45:28;6.70;;;3.88;;
28176;SDS011;15461;41.652;9.378;2024-01-30T02:47:55;7.03;;;3.97;;
28176;SDS011;15461;41.652;9.378;2024-01-30T02:50:21;5.53;;;3.28;;
28176;SDS011;15461;41.652;9.378;2024-01-30T02:52:47;5.75;;;3.20;;
28176;SDS011;15461;41.652;9.378;2024-01-30T02:55:13;5.10;;;3.45;;
28176;SDS011;15461;41.652;9.378;2024-01-30T02:57:39;5.10;;;3.28;;
28176;SDS011;15461;41.652;9.378;2024-01-30T03:00:05;4.85;;;3.30;;
28176;SDS011;15461;41.652;9.378;2024-01-30T03:02:33;5.30;;;3.25;;
28176;SDS011;15461;41.652;9.378;2024-01-30T03:04:59;7.03;;;3.65;;
28176;SDS011;15461;41.652;9.378;2024-01-30T03:07:25;5.65;;;3.45;;
28176;SDS011;15461;41.652;9.378;2024-01-30T03:09:51;4.40;;;3.10;;
28176;SDS011;15461;41.652;9.378;2024-01-30T03:12:17;4.93;;;3.10;;
28176;SDS011;15461;41.652;9.378;2024-01-30T03:14:42;5.90;;;3.65;;
28176;SDS011;15461;41.652;9.378;2024-01-30T03:17:08;5.28;;;3.33;;
28176;SDS011;15461;41.652;9.378;2024-01-30T03:19:34;8.25;;;3.83;;
28176;SDS011;15461;41.652;9.378;2024-01-30T03:22:00;5.82;;;3.17;;
28176;SDS011;15461;41.652;9.378;2024-01-30T03:24:26;6.45;;;3.72;;
28176;SDS011;15461;41.652;9.378;2024-01-30T03:26:51;4.38;;;3.20;;
28176;SDS011;15461;41.652;9.378;2024-01-30T03:29:18;4.90;;;3.05;;
28176;SDS011;15461;41.652;9.378;2024-01-30T03:31:44;5.50;;;3.40;;
28176;SDS011;15461;41.652;9.378;2024-01-30T03:34:09;4.60;;;3.47;;
28176;SDS011;15461;41.652;9.378;2024-01-30T03:36:35;4.70;;;3.25;;
28176;SDS011;15461;41.652;9.378;2024-01-30T03:39:01;4.60;;;3.20;;
28176;SDS011;15461;41.652;9.378;2024-01-30T03:41:27;4.60;;;3.00;;
28176;SDS011;15461;41.652;9.378;2024-01-30T03:43:53;5.85;;;3.25;;
28176;SDS011;15461;41.652;9.378;2024-01-30T03:46:19;5.40;;;3.42;;
28176;SDS011;15461;41.652;9.378;2024-01-30T03:48:45;5.07;;;3.20;;
28176;SDS011;15461;41.652;9.378;2024-01-30T03:51:11;5.35;;;3.30;;
28176;SDS011;15461;41.652;9.378;2024-01-30T03:53:43;6.68;;;3.35;;
28176;SDS011;15461;41.652;9.378;2024-01-30T03:56:09;6.60;;;3.55;;
28176;SDS011;15461;41.652;9.378;2024-01-30T03:58:35;6.25;;;3.38;;
28176;SDS011;15461;41.652;9.378;2024-01-30T04:01:01;4.47;;;3.20;;
28176;SDS011;15461;41.652;9.378;2024-01-30T04:03:27;4.82;;;3.28;;
28176;SDS011;15461;41.652;9.378;2024-01-30T04:05:53;5.70;;;3.70;;
28176;SDS011;15461;41.652;9.378;2024-01-30T04:08:19;5.82;;;3.75;;
28176;SDS011;15461;41.652;9.378;2024-01-30T04:10:45;4.13;;;3.10;;
28176;SDS011;15461;41.652;9.378;2024-01-30T04:13:11;5.72;;;3.60;;
28176;SDS011;15461;41.652;9.378;2024-01-30T04:15:37;5.65;;;3.40;;
28176;SDS011;15461;41.652;9.378;2024-01-30T04:18:03;4.50;;;3.10;;
28176;SDS011;15461;41.652;9.378;2024-01-30T04:20:29;5.47;;;3.42;;
28176;SDS011;15461;41.652;9.378;2024-01-30T04:22:55;6.22;;;3.65;;
28176;SDS011;15461;41.652;9.378;2024-01-30T04:25:21;5.93;;;3.58;;
28176;SDS011;15461;41.652;9.378;2024-01-30T04:27:47;4.32;;;3.15;;
28176;SDS011;15461;41.652;9.378;2024-01-30T04:30:13;5.07;;;3.55;;
28176;SDS011;15461;41.652;9.378;2024-01-30T04:32:39;6.10;;;3.67;;
28176;SDS011;15461;41.652;9.378;2024-01-30T04:35:05;6.28;;;3.53;;
28176;SDS011;15461;41.652;9.378;2024-01-30T04:37:31;3.90;;;2.97;;
28176;SDS011;15461;41.652;9.378;2024-01-30T04:39:56;5.32;;;3.13;;
28176;SDS011;15461;41.652;9.378;2024-01-30T04:42:22;5.03;;;2.97;;
28176;SDS011;15461;41.652;9.378;2024-01-30T04:44:48;5.40;;;3.10;;
28176;SDS011;15461;41.652;9.378;2024-01-30T04:47:14;5.20;;;3.25;;
28176;SDS011;15461;41.652;9.378;2024-01-30T04:49:40;4.82;;;3.15;;
28176;SDS011;15461;41.652;9.378;2024-01-30T04:52:06;5.82;;;3.78;;
28176;SDS011;15461;41.652;9.378;2024-01-30T04:54:33;3.70;;;2.97;;
28176;SDS011;15461;41.652;9.378;2024-01-30T04:56:59;4.97;;;3.00;;
28176;SDS011;15461;41.652;9.378;2024-01-30T04:59:26;3.92;;;3.13;;
28176;SDS011;15461;41.652;9.378;2024-01-30T05:01:51;5.95;;;3.33;;
28176;SDS011;15461;41.652;9.378;2024-01-30T05:04:17;3.83;;;3.00;;
28176;SDS011;15461;41.652;9.378;2024-01-30T05:06:43;4.28;;;3.13;;
28176;SDS011;15461;41.652;9.378;2024-01-30T05:09:09;5.13;;;3.22;;
28176;SDS011;15461;41.652;9.378;2024-01-30T05:11:38;5.85;;;3.40;;
28176;SDS011;15461;41.652;9.378;2024-01-30T05:14:07;6.10;;;3.33;;
28176;SDS011;15461;41.652;9.378;2024-01-30T05:16:34;5.18;;;3.30;;
28176;SDS011;15461;41.652;9.378;2024-01-30T05:19:00;6.22;;;3.40;;
28176;SDS011;15461;41.652;9.378;2024-01-30T05:21:26;3.92;;;2.90;;
28176;SDS011;15461;41.652;9.378;2024-01-30T05:23:51;5.50;;;3.53;;
28176;SDS011;15461;41.652;9.378;2024-01-30T05:26:17;4.13;;;3.35;;
28176;SDS011;15461;41.652;9.378;2024-01-30T05:28:46;4.25;;;3.10;;
28176;SDS011;15461;41.652;9.378;2024-01-30T05:31:11;6.60;;;3.58;;
28176;SDS011;15461;41.652;9.378;2024-01-30T05:33:37;4.20;;;2.75;;
28176;SDS011;15461;41.652;9.378;2024-01-30T05:36:03;4.97;;;2.83;;
28176;SDS011;15461;41.652;9.378;2024-01-30T05:38:29;5.82;;;3.42;;
28176;SDS011;15461;41.652;9.378;2024-01-30T05:40:58;4.32;;;3.15;;
28176;SDS011;15461;41.652;9.378;2024-01-30T05:43:24;4.07;;;2.80;;
28176;SDS011;15461;41.652;9.378;2024-01-30T05:45:50;6.00;;;3.10;;
28176;SDS011;15461;41.652;9.378;2024-01-30T05:48:17;5.47;;;2.97;;
28176;SDS011;15461;41.652;9.378;2024-01-30T05:50:43;6.35;;;3.42;;
28176;SDS011;15461;41.652;9.378;2024-01-30T05:53:08;4.45;;;3.20;;
28176;SDS011;15461;41.652;9.378;2024-01-30T05:55:34;5.53;;;3.38;;
28176;SDS011;15461;41.652;9.378;2024-01-30T05:58:00;6.68;;;3.10;;
28176;SDS011;15461;41.652;9.378;2024-01-30T06:00:26;5.15;;;2.88;;
28176;SDS011;15461;41.652;9.378;2024-01-30T06:02:52;5.95;;;3.13;;
28176;SDS011;15461;41.652;9.378;2024-01-30T06:05:18;6.30;;;3.40;;
28176;SDS011;15461;41.652;9.378;2024-01-30T06:07:43;5.65;;;3.10;;
28176;SDS011;15461;41.652;9.378;2024-01-30T06:10:09;5.47;;;2.97;;
28176;SDS011;15461;41.652;9.378;2024-01-30T06:12:35;4.57;;;3.22;;
28176;SDS011;15461;41.652;9.378;2024-01-30T06:15:01;3.80;;;2.92;;
28176;SDS011;15461;41.652;9.378;2024-01-30T06:17:28;5.07;;;2.63;;
28176;SDS011;15461;41.652;9.378;2024-01-30T06:19:54;4.97;;;3.33;;
28176;SDS011;15461;41.652;9.378;2024-01-30T06:22:19;6.35;;;3.67;;
28176;SDS011;15461;41.652;9.378;2024-01-30T06:24:45;4.70;;;2.80;;
28176;SDS011;15461;41.652;9.378;2024-01-30T06:27:13;5.07;;;2.75;;
28176;SDS011;15461;41.652;9.378;2024-01-30T06:29:40;4.72;;;3.00;;
28176;SDS011;15461;41.652;9.378;2024-01-30T06:32:07;5.22;;;3.30;;
28176;SDS011;15461;41.652;9.378;2024-01-30T06:34:33;6.50;;;3.47;;
28176;SDS011;15461;41.652;9.378;2024-01-30T06:36:59;6.97;;;3.33;;
28176;SDS011;15461;41.652;9.378;2024-01-30T06:39:25;5.03;;;3.10;;
28176;SDS011;15461;41.652;9.378;2024-01-30T06:41:51;5.60;;;3.47;;
28176;SDS011;15461;41.652;9.378;2024-01-30T06:44:17;4.60;;;3.33;;
28176;SDS011;15461;41.652;9.378;2024-01-30T06:46:43;5.90;;;2.92;;
28176;SDS011;15461;41.652;9.378;2024-01-30T06:49:09;5.68;;;2.90;;
28176;SDS011;15461;41.652;9.378;2024-01-30T06:51:34;5.45;;;3.20;;
28176;SDS011;15461;41.652;9.378;2024-01-30T06:54:00;3.75;;;2.85;;
28176;SDS011;15461;41.652;9.378;2024-01-30T06:56:26;6.40;;;3.45;;
28176;SDS011;15461;41.652;9.378;2024-01-30T06:58:52;6.93;;;3.35;;
28176;SDS011;15461;41.652;9.378;2024-01-30T07:01:17;4.72;;;2.90;;
28176;SDS011;15461;41.652;9.378;2024-01-30T07:03:43;7.05;;;3.38;;
28176;SDS011;15461;41.652;9.378;2024-01-30T07:06:09;11.77;;;3.55;;
28176;SDS011;15461;41.652;9.378;2024-01-30T07:08:38;5.00;;;3.35;;
28176;SDS011;15461;41.652;9.378;2024-01-30T07:11:07;6.15;;;3.42;;
28176;SDS011;15461;41.652;9.378;2024-01-30T07:13:34;5.68;;;3.47;;
28176;SDS011;15461;41.652;9.378;2024-01-30T07:16:00;7.28;;;3.33;;
28176;SDS011;15461;41.652;9.378;2024-01-30T07:18:26;4.20;;;2.85;;
28176;SDS011;15461;41.652;9.378;2024-01-30T07:20:51;3.50;;;2.78;;
28176;SDS011;15461;41.652;9.378;2024-01-30T07:23:17;5.82;;;3.10;;
28176;SDS011;15461;41.652;9.378;2024-01-30T07:25:45;5.90;;;3.20;;
28176;SDS011;15461;41.652;9.378;2024-01-30T07:28:15;4.65;;;3.17;;
28176;SDS011;15461;41.652;9.378;2024-01-30T07:30:43;3.22;;;2.50;;
28176;SDS011;15461;41.652;9.378;2024-01-30T07:33:09;4.28;;;3.17;;
28176;SDS011;15461;41.652;9.378;2024-01-30T07:35:35;4.45;;;2.80;;
28176;SDS011;15461;41.652;9.378;2024-01-30T07:38:01;6.40;;;2.97;;
28176;SDS011;15461;41.652;9.378;2024-01-30T07:40:27;6.25;;;2.90;;
28176;SDS011;15461;41.652;9.378;2024-01-30T07:42:53;6.18;;;2.85;;
28176;SDS011;15461;41.652;9.378;2024-01-30T07:45:19;5.30;;;2.83;;
28176;SDS011;15461;41.652;9.378;2024-01-30T07:47:50;5.07;;;2.95;;
28176;SDS011;15461;41.652;9.378;2024-01-30T07:50:16;4.28;;;2.88;;
28176;SDS011;15461;41.652;9.378;2024-01-30T07:52:42;6.00;;;3.50;;
28176;SDS011;15461;41.652;9.378;2024-01-30T07:58:33;6.75;;;3.30;;
28176;SDS011;15461;41.652;9.378;2024-01-30T08:00:58;5.13;;;3.30;;
28176;SDS011;15461;41.652;9.378;2024-01-30T08:03:25;4.60;;;3.20;;
28176;SDS011;15461;41.652;9.378;2024-01-30T08:05:51;7.70;;;3.50;;
28176;SDS011;15461;41.652;9.378;2024-01-30T08:08:17;4.60;;;3.47;;
28176;SDS011;15461;41.652;9.378;2024-01-30T08:10:43;7.38;;;3.90;;
28176;SDS011;15461;41.652;9.378;2024-01-30T08:13:09;6.40;;;3.97;;
28176;SDS011;15461;41.652;9.378;2024-01-30T08:15:34;4.88;;;3.45;;
28176;SDS011;15461;41.652;9.378;2024-01-30T08:18:00;6.93;;;4.25;;
28176;SDS011;15461;41.652;9.378;2024-01-30T08:20:26;6.32;;;4.03;;
28176;SDS011;15461;41.652;9.378;2024-01-30T08:22:52;11.07;;;4.72;;
28176;SDS011;15461;41.652;9.378;2024-01-30T08:25:17;22.60;;;5.97;;
28176;SDS011;15461;41.652;9.378;2024-01-30T08:27:43;9.88;;;4.35;;
28176;SDS011;15461;41.652;9.378;2024-01-30T08:30:10;12.15;;;5.25;;
28176;SDS011;15461;41.652;9.378;2024-01-30T08:32:36;33.63;;;5.80;;
28176;SDS011;15461;41.652;9.378;2024-01-30T08:35:02;8.38;;;4.22;;
28176;SDS011;15461;41.652;9.378;2024-01-30T08:37:31;15.05;;;5.10;;
28176;SDS011;15461;41.652;9.378;2024-01-30T08:39:57;23.20;;;5.45;;
28176;SDS011;15461;41.652;9.378;2024-01-30T08:42:23;51.90;;;8.30;;
28176;SDS011;15461;41.652;9.378;2024-01-30T08:44:49;84.78;;;12.38;;
28176;SDS011;15461;41.652;9.378;2024-01-30T08:47:16;112.05;;;13.98;;
28176;SDS011;15461;41.652;9.378;2024-01-30T08:49:43;101.10;;;13.50;;
28176;SDS011;15461;41.652;9.378;2024-01-30T08:52:10;175.73;;;16.15;;
28176;SDS011;15461;41.652;9.378;2024-01-30T08:54:36;39.45;;;7.18;;
28176;SDS011;15461;41.652;9.378;2024-01-30T08:57:02;15.35;;;5.45;;
28176;SDS011;15461;41.652;9.378;2024-01-30T08:59:29;16.50;;;4.15;;
28176;SDS011;15461;41.652;9.378;2024-01-30T09:01:55;23.15;;;5.38;;
28176;SDS011;15461;41.652;9.378;2024-01-30T09:04:23;14.63;;;4.82;;
28176;SDS011;15461;41.652;9.378;2024-01-30T09:06:49;5.88;;;3.97;;
28176;SDS011;15461;41.652;9.378;2024-01-30T09:09:15;10.65;;;4.55;;
28176;SDS011;15461;41.652;9.378;2024-01-30T09:11:41;6.28;;;3.42;;
28176;SDS011;15461;41.652;9.378;2024-01-30T09:14:06;7.95;;;3.78;;
28176;SDS011;15461;41.652;9.378;2024-01-30T09:16:32;5.72;;;3.40;;
28176;SDS011;15461;41.652;9.378;2024-01-30T09:18:59;5.55;;;3.92;;
28176;SDS011;15461;41.652;9.378;2024-01-30T09:21:25;19.63;;;4.55;;
28176;SDS011;15461;41.652;9.378;2024-01-30T09:23:52;18.90;;;4.60;;
28176;SDS011;15461;41.652;9.378;2024-01-30T09:26:19;10.52;;;3.90;;
28176;SDS011;15461;41.652;9.378;2024-01-30T09:28:45;3.92;;;2.92;;
28176;SDS011;15461;41.652;9.378;2024-01-30T09:31:11;5.47;;;3.35;;
28176;SDS011;15461;41.652;9.378;2024-01-30T09:33:37;6.72;;;3.40;;
28176;SDS011;15461;41.652;9.378;2024-01-30T09:36:04;4.28;;;3.05;;
28176;SDS011;15461;41.652;9.378;2024-01-30T09:38:31;7.85;;;3.00;;
28176;SDS011;15461;41.652;9.378;2024-01-30T09:40:56;5.68;;;3.63;;
28176;SDS011;15461;41.652;9.378;2024-01-30T09:43:28;4.35;;;3.03;;
28176;SDS011;15461;41.652;9.378;2024-01-30T09:45:58;6.57;;;3.30;;
28176;SDS011;15461;41.652;9.378;2024-01-30T09:48:25;15.68;;;3.50;;
28176;SDS011;15461;41.652;9.378;2024-01-30T09:50:52;6.28;;;3.47;;
28176;SDS011;15461;41.652;9.378;2024-01-30T09:53:18;38.53;;;7.68;;
28176;SDS011;15461;41.652;9.378;2024-01-30T09:55:45;18.85;;;3.67;;
28176;SDS011;15461;41.652;9.378;2024-01-30T09:58:12;5.72;;;3.03;;
28176;SDS011;15461;41.652;9.378;2024-01-30T10:00:38;6.05;;;3.10;;
28176;SDS011;15461;41.652;9.378;2024-01-30T10:03:04;6.60;;;3.08;;
28176;SDS011;15461;41.652;9.378;2024-01-30T10:05:31;6.07;;;3.33;;
28176;SDS011;15461;41.652;9.378;2024-01-30T10:07:59;5.05;;;3.10;;
28176;SDS011;15461;41.652;9.378;2024-01-30T14:23:23;3.28;;;2.40;;
28176;SDS011;15461;41.652;9.378;2024-01-30T14:25:49;5.60;;;2.45;;
28176;SDS011;15461;41.652;9.378;2024-01-30T14:28:16;6.30;;;2.90;;
28176;SDS011;15461;41.652;9.378;2024-01-30T14:30:42;5.68;;;2.80;;
28176;SDS011;15461;41.652;9.378;2024-01-30T14:33:08;2.38;;;1.98;;
28176;SDS011;15461;41.652;9.378;2024-01-30T14:35:34;4.38;;;2.45;;
28176;SDS011;15461;41.652;9.378;2024-01-30T14:37:59;3.20;;;2.30;;
28176;SDS011;15461;41.652;9.378;2024-01-30T14:40:26;2.17;;;1.83;;
28176;SDS011;15461;41.652;9.378;2024-01-30T14:42:52;3.28;;;2.08;;
28176;SDS011;15461;41.652;9.378;2024-01-30T14:45:18;5.30;;;2.33;;
28176;SDS011;15461;41.652;9.378;2024-01-30T14:47:44;3.22;;;2.45;;
28176;SDS011;15461;41.652;9.378;2024-01-30T14:50:10;6.40;;;2.50;;
28176;SDS011;15461;41.652;9.378;2024-01-30T14:52:36;6.00;;;2.58;;
28176;SDS011;15461;41.652;9.378;2024-01-30T14:55:04;4.78;;;2.30;;
28176;SDS011;15461;41.652;9.378;2024-01-30T14:57:30;4.70;;;2.60;;
28176;SDS011;15461;41.652;9.378;2024-01-30T14:59:56;3.17;;;2.33;;
28176;SDS011;15461;41.652;9.378;2024-01-30T15:02:22;5.15;;;2.72;;
28176;SDS011;15461;41.652;9.378;2024-01-30T15:04:48;3.17;;;2.40;;
28176;SDS011;15461;41.652;9.378;2024-01-30T15:07:14;4.93;;;2.97;;
28176;SDS011;15461;41.652;9.378;2024-01-30T15:09:39;3.67;;;2.40;;
28176;SDS011;15461;41.652;9.378;2024-01-30T15:12:05;5.65;;;2.45;;
28176;SDS011;15461;41.652;9.378;2024-01-30T15:14:31;4.22;;;2.47;;
28176;SDS011;15461;41.652;9.378;2024-01-30T15:16:57;3.85;;;2.38;;
28176;SDS011;15461;41.652;9.378;2024-01-30T15:19:23;4.03;;;1.80;;
28176;SDS011;15461;41.652;9.378;2024-01-30T15:21:48;4.45;;;2.58;;
28176;SDS011;15461;41.652;9.378;2024-01-30T15:24:14;5.60;;;2.47;;
28176;SDS011;15461;41.652;9.378;2024-01-30T15:26:42;7.40;;;2.58;;
28176;SDS011;15461;41.652;9.378;2024-01-30T15:29:08;5.47;;;2.42;;
28176;SDS011;15461;41.652;9.378;2024-01-30T15:31:33;3.50;;;2.28;;
28176;SDS011;15461;41.652;9.378;2024-01-30T15:34:00;5.95;;;2.70;;
28176;SDS011;15461;41.652;9.378;2024-01-30T15:36:25;5.22;;;2.60;;
28176;SDS011;15461;41.652;9.378;2024-01-30T15:38:51;2.83;;;2.20;;
28176;SDS011;15461;41.652;9.378;2024-01-30T15:41:17;3.30;;;2.30;;
28176;SDS011;15461;41.652;9.378;2024-01-30T15:43:43;5.35;;;2.80;;
28176;SDS011;15461;41.652;9.378;2024-01-30T15:46:09;4.53;;;2.13;;
28176;SDS011;15461;41.652;9.378;2024-01-30T15:48:34;4.82;;;2.80;;
28176;SDS011;15461;41.652;9.378;2024-01-30T15:51:00;2.75;;;2.15;;
28176;SDS011;15461;41.652;9.378;2024-01-30T15:53:26;6.05;;;2.63;;
28176;SDS011;15461;41.652;9.378;2024-01-30T15:55:52;2.95;;;2.20;;
28176;SDS011;15461;41.652;9.378;2024-01-30T15:58:18;3.70;;;2.63;;
28176;SDS011;15461;41.652;9.378;2024-01-30T16:00:43;6.25;;;2.83;;
28176;SDS011;15461;41.652;9.378;2024-01-30T16:03:09;4.25;;;2.38;;
28176;SDS011;15461;41.652;9.378;2024-01-30T16:05:35;3.55;;;2.25;;
28176;SDS011;15461;41.652;9.378;2024-01-30T16:08:01;4.13;;;2.20;;
28176;SDS011;15461;41.652;9.378;2024-01-30T16:10:26;3.33;;;2.22;;
28176;SDS011;15461;41.652;9.378;2024-01-30T16:12:52;3.58;;;2.35;;
28176;SDS011;15461;41.652;9.378;2024-01-30T16:15:18;15.65;;;7.10;;
28176;SDS011;15461;41.652;9.378;2024-01-30T16:17:45;12.18;;;5.35;;
28176;SDS011;15461;41.652;9.378;2024-01-30T16:20:11;14.23;;;4.28;;
28176;SDS011;15461;41.652;9.378;2024-01-30T16:22:39;5.30;;;2.80;;
28176;SDS011;15461;41.652;9.378;2024-01-30T16:25:06;5.38;;;2.53;;
28176;SDS011;15461;41.652;9.378;2024-01-30T16:27:32;4.80;;;2.45;;
28176;SDS011;15461;41.652;9.378;2024-01-30T16:29:57;2.85;;;2.22;;
28176;SDS011;15461;41.652;9.378;2024-01-30T16:32:23;4.72;;;2.58;;
28176;SDS011;15461;41.652;9.378;2024-01-30T16:34:49;11.90;;;2.53;;
28176;SDS011;15461;41.652;9.378;2024-01-30T16:37:15;4.70;;;2.15;;
28176;SDS011;15461;41.652;9.378;2024-01-30T16:39:41;4.22;;;2.30;;
28176;SDS011;15461;41.652;9.378;2024-01-30T16:42:08;2.70;;;2.13;;
28176;SDS011;15461;41.652;9.378;2024-01-30T16:44:34;5.63;;;2.60;;
28176;SDS011;15461;41.652;9.378;2024-01-30T16:46:59;4.97;;;2.28;;
28176;SDS011;15461;41.652;9.378;2024-01-30T16:49:25;4.55;;;2.58;;
28176;SDS011;15461;41.652;9.378;2024-01-30T16:51:51;6.45;;;2.45;;
28176;SDS011;15461;41.652;9.378;2024-01-30T16:54:17;6.05;;;2.30;;
28176;SDS011;15461;41.652;9.378;2024-01-30T16:56:43;9.07;;;3.13;;
28176;SDS011;15461;41.652;9.378;2024-01-30T16:59:16;9.52;;;3.20;;
28176;SDS011;15461;41.652;9.378;2024-01-30T17:01:43;5.55;;;2.90;;
28176;SDS011;15461;41.652;9.378;2024-01-30T17:04:16;10.57;;;3.50;;
28176;SDS011;15461;41.652;9.378;2024-01-30T17:06:43;11.45;;;3.88;;
28176;SDS011;15461;41.652;9.378;2024-01-30T17:09:09;10.73;;;5.70;;
28176;SDS011;15461;41.652;9.378;2024-01-30T17:11:40;27.45;;;9.10;;
28176;SDS011;15461;41.652;9.378;2024-01-30T17:14:06;28.63;;;12.00;;
28176;SDS011;15461;41.652;9.378;2024-01-30T17:16:33;31.08;;;14.10;;
28176;SDS011;15461;41.652;9.378;2024-01-30T17:18:58;38.40;;;15.45;;
28176;SDS011;15461;41.652;9.378;2024-01-30T17:21:24;31.65;;;11.38;;
28176;SDS011;15461;41.652;9.378;2024-01-30T17:23:50;35.53;;;14.20;;
28176;SDS011;15461;41.652;9.378;2024-01-30T17:26:16;34.25;;;13.35;;
28176;SDS011;15461;41.652;9.378;2024-01-30T17:28:41;35.90;;;12.35;;
28176;SDS011;15461;41.652;9.378;2024-01-30T17:31:08;43.58;;;17.33;;
28176;SDS011;15461;41.652;9.378;2024-01-30T17:33:34;33.42;;;13.13;;
28176;SDS011;15461;41.652;9.378;2024-01-30T17:35:59;35.20;;;12.20;;
28176;SDS011;15461;41.652;9.378;2024-01-30T17:38:25;28.45;;;12.57;;
28176;SDS011;15461;41.652;9.378;2024-01-30T17:40:52;26.10;;;11.38;;
28176;SDS011;15461;41.652;9.378;2024-01-30T17:43:18;23.60;;;8.68;;
28176;SDS011;15461;41.652;9.378;2024-01-30T17:45:44;27.83;;;11.40;;
28176;SDS011;15461;41.652;9.378;2024-01-30T17:48:10;22.83;;;10.15;;
28176;SDS011;15461;41.652;9.378;2024-01-30T17:50:36;38.38;;;11.02;;
28176;SDS011;15461;41.652;9.378;2024-01-30T17:53:02;21.60;;;8.38;;
28176;SDS011;15461;41.652;9.378;2024-01-30T17:55:28;13.18;;;6.65;;
28176;SDS011;15461;41.652;9.378;2024-01-30T17:57:53;13.98;;;6.75;;
28176;SDS011;15461;41.652;9.378;2024-01-30T18:00:19;13.52;;;6.60;;
28176;SDS011;15461;41.652;9.378;2024-01-30T18:02:45;15.13;;;7.65;;
28176;SDS011;15461;41.652;9.378;2024-01-30T18:05:11;14.73;;;7.65;;
28176;SDS011;15461;41.652;9.378;2024-01-30T18:07:37;23.67;;;9.13;;
28176;SDS011;15461;41.652;9.378;2024-01-30T18:10:08;20.63;;;9.23;;
28176;SDS011;15461;41.652;9.378;2024-01-30T18:12:34;18.85;;;8.25;;
28176;SDS011;15461;41.652;9.378;2024-01-30T18:15:01;21.67;;;9.15;;
28176;SDS011;15461;41.652;9.378;2024-01-30T18:17:28;13.10;;;7.38;;
28176;SDS011;15461;41.652;9.378;2024-01-30T18:19:53;13.88;;;6.68;;
28176;SDS011;15461;41.652;9.378;2024-01-30T18:22:19;17.38;;;7.85;;
28176;SDS011;15461;41.652;9.378;2024-01-30T18:24:45;18.70;;;7.60;;
28176;SDS011;15461;41.652;9.378;2024-01-30T18:27:11;14.50;;;6.28;;
28176;SDS011;15461;41.652;9.378;2024-01-30T18:29:36;13.45;;;5.60;;
28176;SDS011;15461;41.652;9.378;2024-01-30T18:32:02;10.73;;;5.18;;
28176;SDS011;15461;41.652;9.378;2024-01-30T18:34:28;14.73;;;6.78;;
28176;SDS011;15461;41.652;9.378;2024-01-30T18:36:54;18.77;;;6.80;;
28176;SDS011;15461;41.652;9.378;2024-01-30T18:39:25;13.63;;;5.53;;
28176;SDS011;15461;41.652;9.378;2024-01-30T18:41:51;11.75;;;5.75;;
28176;SDS011;15461;41.652;9.378;2024-01-30T18:44:17;12.30;;;6.20;;
28176;SDS011;15461;41.652;9.378;2024-01-30T18:46:43;13.85;;;6.40;;
28176;SDS011;15461;41.652;9.378;2024-01-30T18:49:08;11.15;;;5.45;;
28176;SDS011;15461;41.652;9.378;2024-01-30T18:51:34;12.70;;;5.30;;
28176;SDS011;15461;41.652;9.378;2024-01-30T18:54:00;11.80;;;5.80;;